Time;durP1;ratioP1;P1;durP2;ratioP2;P2;SDS_P1;SDS_P2;PMS_P1;PMS_P2;Temp;Humidity;BMP_temperature;BMP_pressure;BME280_temperature;BME280_humidity;BME280_pressure;Samples;Min_cycle;Max_cycle;Signal;HPM_P1;HPM_P2
2021/07/18 00:01:01;;;;;;;38.63;26.48;;;21.10;99.90;;;;;;5095845;28;20051;-82
2021/07/18 00:03:27;;;;;;;29.73;23.90;;;21.10;99.90;;;;;;5095944;28;20477;-82
2021/07/18 00:05:53;;;;;;;35.08;26.13;;;21.10;99.90;;;;;;5102436;28;20045;-81
2021/07/18 00:08:20;;;;;;;33.40;24.25;;;21.10;99.90;;;;;;5111567;28;20028;-81
2021/07/18 00:10:46;;;;;;;29.70;23.73;;;21.20;99.90;;;;;;5113055;28;20042;-82
2021/07/18 00:13:11;;;;;;;35.67;25.35;;;21.20;99.90;;;;;;5111741;28;20020;-82
2021/07/18 00:15:37;;;;;;;31.40;24.52;;;21.20;99.90;;;;;;5107093;28;20039;-82
2021/07/18 00:18:03;;;;;;;28.25;24.08;;;21.20;99.90;;;;;;5103026;28;20036;-82
2021/07/18 00:20:29;;;;;;;33.85;25.55;;;21.20;99.90;;;;;;5100055;28;20020;-83
2021/07/18 00:22:55;;;;;;;30.10;23.77;;;21.20;99.90;;;;;;5100509;28;20012;-82
2021/07/18 00:25:20;;;;;;;34.05;26.63;;;21.10;99.90;;;;;;5112035;28;20064;-83
2021/07/18 00:27:46;;;;;;;28.33;24.00;;;21.20;99.90;;;;;;5094105;28;20120;-83
2021/07/18 00:30:12;;;;;;;32.55;26.58;;;21.10;99.90;;;;;;5092355;28;20020;-84
2021/07/18 00:32:39;;;;;;;32.72;26.73;;;21.10;99.90;;;;;;5091371;28;20496;-83
2021/07/18 00:35:05;;;;;;;33.95;27.42;;;21.00;99.90;;;;;;5090960;28;20024;-82
2021/07/18 00:37:31;;;;;;;33.78;26.60;;;21.00;99.90;;;;;;5091368;28;20385;-82
2021/07/18 00:39:57;;;;;;;34.58;26.60;;;21.00;99.90;;;;;;5091546;28;20032;-82
2021/07/18 00:42:23;;;;;;;37.08;28.90;;;20.90;99.90;;;;;;5091683;28;20123;-83
2021/07/18 00:44:48;;;;;;;35.85;27.85;;;20.80;99.90;;;;;;5091471;28;20469;-83
2021/07/18 00:47:14;;;;;;;36.45;28.05;;;20.70;99.90;;;;;;5091166;28;20473;-83
2021/07/18 00:49:40;;;;;;;32.72;26.55;;;20.70;99.90;;;;;;5091391;28;20040;-82
2021/07/18 00:52:08;;;;;;;46.92;26.92;;;20.70;99.90;;;;;;5092422;28;20024;-82
2021/07/18 00:54:34;;;;;;;32.45;25.27;;;20.60;99.90;;;;;;5108144;28;20035;-82
2021/07/18 00:57:01;;;;;;;38.05;26.75;;;20.60;99.90;;;;;;5111631;28;20076;-83
2021/07/18 00:59:27;;;;;;;34.38;25.85;;;20.60;99.90;;;;;;5110586;28;20071;-83
2021/07/18 01:01:54;;;;;;;32.97;24.77;;;20.60;99.90;;;;;;5110923;28;20059;-82
2021/07/18 01:04:20;;;;;;;31.25;26.45;;;20.50;99.90;;;;;;5094795;28;20473;-82
2021/07/18 01:06:47;;;;;;;33.42;26.17;;;20.50;99.90;;;;;;5094452;28;20020;-82
2021/07/18 01:09:13;;;;;;;32.28;25.75;;;20.50;99.90;;;;;;5094440;28;20111;-83
2021/07/18 01:11:38;;;;;;;29.92;24.73;;;20.50;99.90;;;;;;5094855;28;20104;-83
2021/07/18 01:14:05;;;;;;;29.10;23.50;;;20.60;99.90;;;;;;5094386;28;20436;-82
2021/07/18 01:16:31;;;;;;;32.17;25.08;;;20.60;99.90;;;;;;5095566;28;20032;-82
2021/07/18 01:18:57;;;;;;;30.08;24.00;;;20.60;99.90;;;;;;5095604;28;20049;-82
2021/07/18 01:21:26;;;;;;;27.90;22.33;;;20.60;99.90;;;;;;5094199;28;20023;-83
2021/07/18 01:23:53;;;;;;;27.55;21.42;;;20.60;99.90;;;;;;5105390;28;20168;-82
2021/07/18 01:26:19;;;;;;;31.58;22.67;;;20.70;99.90;;;;;;5114209;28;20023;-83
2021/07/18 01:28:46;;;;;;;31.38;25.50;;;20.70;99.90;;;;;;5114979;28;20050;-82
2021/07/18 01:31:12;;;;;;;33.45;24.80;;;20.70;99.90;;;;;;5115720;28;20020;-82
2021/07/18 01:33:38;;;;;;;28.98;24.92;;;20.70;99.90;;;;;;5092069;28;20039;-83
2021/07/18 01:36:04;;;;;;;31.27;25.50;;;20.60;99.90;;;;;;5094318;28;20481;-83
2021/07/18 01:38:29;;;;;;;34.50;26.27;;;20.50;99.90;;;;;;5094111;28;20024;-83
2021/07/18 01:40:55;;;;;;;32.85;25.80;;;20.40;99.90;;;;;;5093995;28;20124;-83
2021/07/18 01:43:21;;;;;;;32.58;27.13;;;20.30;99.90;;;;;;5093695;28;20028;-82
2021/07/18 01:45:47;;;;;;;35.17;26.50;;;20.30;99.90;;;;;;5093668;28;20031;-83
2021/07/18 01:48:13;;;;;;;33.42;25.73;;;20.30;99.90;;;;;;5095193;28;20420;-83
2021/07/18 01:50:38;;;;;;;38.85;30.55;;;20.30;99.90;;;;;;5093729;28;20448;-83
2021/07/18 01:53:05;;;;;;;47.53;31.33;;;20.10;99.90;;;;;;5098624;28;20028;-82
2021/07/18 01:55:32;;;;;;;41.20;32.92;;;20.00;99.90;;;;;;5114210;28;20032;-82
2021/07/18 01:57:58;;;;;;;45.38;34.28;;;19.90;99.90;;;;;;5113972;28;20019;-82
2021/07/18 02:00:23;;;;;;;47.08;35.67;;;19.90;99.90;;;;;;5114769;28;20035;-84
2021/07/18 02:02:51;;;;;;;40.30;31.48;;;19.90;99.90;;;;;;5112288;28;20038;-83
2021/07/18 02:05:18;;;;;;;44.50;34.00;;;19.90;99.90;;;;;;5113959;28;20168;-82
2021/07/18 02:07:45;;;;;;;45.63;34.17;;;19.90;99.90;;;;;;5114942;28;20080;-83
2021/07/18 02:10:12;;;;;;;45.10;35.70;;;19.90;99.90;;;;;;5114898;28;20027;-83
2021/07/18 02:12:38;;;;;;;43.63;31.63;;;19.90;99.90;;;;;;5114423;28;20100;-83
2021/07/18 02:15:07;;;;;;;43.13;30.50;;;19.90;99.90;;;;;;5115109;28;20070;-83
2021/07/18 02:17:33;;;;;;;40.03;32.88;;;19.90;99.90;;;;;;5114370;28;20456;-83
2021/07/18 02:19:59;;;;;;;47.72;33.97;;;20.00;99.90;;;;;;5114224;28;20094;-83
2021/07/18 02:22:45;;;;;;;42.75;33.10;;;19.90;99.90;;;;;;5114637;28;20362;-83
2021/07/18 02:25:12;;;;;;;42.35;32.67;;;19.80;99.90;;;;;;5093411;28;20028;-83
2021/07/18 02:27:38;;;;;;;40.45;30.67;;;19.80;99.90;;;;;;5094221;28;20024;-83
2021/07/18 02:30:09;;;;;;;41.03;31.42;;;19.70;99.90;;;;;;5094159;28;20027;-83
2021/07/18 02:32:35;;;;;;;39.78;29.65;;;19.70;99.90;;;;;;5092834;28;20048;-83
2021/07/18 02:35:02;;;;;;;41.50;29.63;;;19.70;99.90;;;;;;5092713;28;20112;-83
2021/07/18 02:37:27;;;;;;;40.60;31.77;;;19.70;99.90;;;;;;5094370;28;20469;-83
2021/07/18 02:39:53;;;;;;;43.42;32.00;;;19.70;99.90;;;;;;5092975;28;20108;-83
2021/07/18 02:42:19;;;;;;;46.55;33.42;;;19.80;99.90;;;;;;5093928;28;20073;-83
2021/07/18 02:44:44;;;;;;;42.85;33.22;;;19.90;99.90;;;;;;5092583;28;20074;-83
2021/07/18 02:47:10;;;;;;;40.22;30.23;;;19.90;99.90;;;;;;5092884;28;20030;-83
2021/07/18 02:49:35;;;;;;;40.08;30.23;;;19.90;99.90;;;;;;5094151;28;20032;-83
2021/07/18 02:52:03;;;;;;;42.65;30.63;;;19.90;99.90;;;;;;5093885;28;20093;-83
2021/07/18 02:54:29;;;;;;;41.20;30.83;;;19.90;99.90;;;;;;5108865;28;20055;-82
2021/07/18 02:56:54;;;;;;;60.90;47.88;;;19.90;99.90;;;;;;5114179;28;20059;-82
2021/07/18 02:59:20;;;;;;;53.35;38.63;;;19.90;99.90;;;;;;5113954;28;20103;-82
2021/07/18 03:01:46;;;;;;;44.75;33.30;;;19.80;99.90;;;;;;5113049;28;20027;-83
2021/07/18 03:04:11;;;;;;;44.25;34.10;;;19.90;99.90;;;;;;5114168;28;20027;-81
2021/07/18 03:06:37;;;;;;;41.13;31.83;;;19.90;99.90;;;;;;5113919;28;20490;-83
2021/07/18 03:09:03;;;;;;;40.35;32.15;;;19.90;99.90;;;;;;5113893;28;20560;-82
2021/07/18 03:11:28;;;;;;;39.90;30.52;;;19.90;99.90;;;;;;5113773;28;20023;-82
2021/07/18 03:13:54;;;;;;;44.80;31.77;;;20.00;99.90;;;;;;5113701;28;20373;-82
2021/07/18 03:16:19;;;;;;;38.45;30.60;;;20.00;99.90;;;;;;5113782;28;20034;-82
2021/07/18 03:18:45;;;;;;;53.20;32.28;;;20.00;99.90;;;;;;5112367;28;20152;-82
2021/07/18 03:21:10;;;;;;;31.52;25.73;;;20.10;99.90;;;;;;5112199;28;20034;-82
2021/07/18 03:23:36;;;;;;;34.42;26.58;;;20.10;99.90;;;;;;5108197;28;20432;-81
2021/07/18 03:26:02;;;;;;;31.10;24.58;;;20.10;99.90;;;;;;5112353;28;20051;-81
2021/07/18 03:28:27;;;;;;;34.45;25.45;;;20.30;99.90;;;;;;5113490;28;20473;-81
2021/07/18 03:30:53;;;;;;;26.88;22.13;;;20.40;99.90;;;;;;5113610;28;20467;-82
2021/07/18 03:33:19;;;;;;;29.90;21.60;;;20.40;99.90;;;;;;5112231;28;20036;-81
2021/07/18 03:35:45;;;;;;;23.65;18.63;;;20.50;99.90;;;;;;5113469;28;20031;-81
2021/07/18 03:38:11;;;;;;;24.60;17.33;;;20.60;99.90;;;;;;5103782;28;20363;-82
2021/07/18 03:40:36;;;;;;;20.73;17.23;;;20.60;99.90;;;;;;5091814;28;20122;-82
2021/07/18 03:43:02;;;;;;;17.95;14.75;;;20.70;99.90;;;;;;5091653;28;20108;-82
2021/07/18 03:45:28;;;;;;;18.45;15.40;;;20.80;99.90;;;;;;5091738;28;20050;-82
2021/07/18 03:47:53;;;;;;;15.82;13.43;;;20.90;99.90;;;;;;5093170;28;20021;-81
2021/07/18 03:50:19;;;;;;;16.33;13.30;;;21.00;99.90;;;;;;5091614;28;20020;-84
2021/07/18 03:52:45;;;;;;;17.05;13.35;;;21.00;99.90;;;;;;5092820;28;20032;-83
2021/07/18 03:55:14;;;;;;;18.58;13.52;;;21.10;99.90;;;;;;5111700;28;20078;-82
2021/07/18 03:57:40;;;;;;;16.98;13.02;;;21.20;99.90;;;;;;5113568;28;20023;-82
2021/07/18 04:00:06;;;;;;;16.63;13.38;;;21.20;99.90;;;;;;5113149;28;20388;-82
2021/07/18 04:02:32;;;;;;;17.17;13.82;;;21.10;99.90;;;;;;5111834;28;20469;-82
2021/07/18 04:04:57;;;;;;;19.08;16.30;;;21.30;99.90;;;;;;5111886;28;20031;-81
2021/07/18 04:07:23;;;;;;;19.33;15.70;;;21.50;99.90;;;;;;5111902;28;20016;-82
2021/07/18 04:09:49;;;;;;;21.98;16.70;;;21.60;99.90;;;;;;5111985;28;20031;-82
2021/07/18 04:12:14;;;;;;;25.05;15.50;;;21.80;99.90;;;;;;5113081;28;20016;-82
2021/07/18 04:14:40;;;;;;;18.52;14.27;;;21.90;99.90;;;;;;5113285;28;20376;-81
2021/07/18 04:17:06;;;;;;;15.98;14.23;;;21.90;99.90;;;;;;5108489;28;20012;-81
2021/07/18 04:19:31;;;;;;;28.17;15.65;;;22.00;99.90;;;;;;5110941;28;20043;-82
2021/07/18 04:21:57;;;;;;;20.42;14.10;;;22.00;99.90;;;;;;5111016;28;20096;-81
2021/07/18 04:24:23;;;;;;;18.40;13.20;;;22.00;99.90;;;;;;5111030;28;20357;-81
2021/07/18 04:26:48;;;;;;;19.85;14.57;;;22.10;99.90;;;;;;5111596;28;20474;-82
2021/07/18 04:29:14;;;;;;;15.05;12.32;;;22.10;99.90;;;;;;5112362;28;20023;-81
2021/07/18 04:31:40;;;;;;;18.15;12.80;;;22.00;99.90;;;;;;5109673;28;20384;-81
2021/07/18 04:34:05;;;;;;;17.08;12.90;;;21.90;99.90;;;;;;5101242;28;20484;-81
2021/07/18 04:36:31;;;;;;;19.55;13.57;;;21.70;99.90;;;;;;5115404;28;20507;-83
2021/07/18 04:38:58;;;;;;;19.52;14.48;;;21.60;99.90;;;;;;5114378;28;20027;-82
2021/07/18 04:41:23;;;;;;;21.45;14.45;;;21.40;99.90;;;;;;5111215;28;20024;-82
2021/07/18 04:43:49;;;;;;;19.17;14.30;;;21.30;99.90;;;;;;5113726;28;20058;-81
2021/07/18 04:46:15;;;;;;;17.58;14.50;;;21.30;99.90;;;;;;5113012;28;20012;-83
2021/07/18 04:48:40;;;;;;;19.38;15.05;;;21.20;99.90;;;;;;5111864;28;20039;-81
2021/07/18 04:51:06;;;;;;;23.90;16.52;;;21.10;99.90;;;;;;5103784;28;20022;-82
2021/07/18 04:53:32;;;;;;;19.75;15.57;;;21.00;99.90;;;;;;5102882;28;20415;-82
2021/07/18 04:55:58;;;;;;;18.98;16.05;;;21.00;99.90;;;;;;5104573;28;20074;-81
2021/07/18 04:58:24;;;;;;;21.88;16.25;;;20.90;99.90;;;;;;5103423;28;20030;-82
2021/07/18 05:00:50;;;;;;;20.15;16.38;;;20.90;99.90;;;;;;5104585;28;20024;-82
2021/07/18 05:03:16;;;;;;;19.83;16.85;;;20.90;99.90;;;;;;5104499;28;20051;-81
2021/07/18 05:05:41;;;;;;;25.92;16.88;;;20.90;99.90;;;;;;5102798;28;20465;-81
2021/07/18 05:08:07;;;;;;;24.02;17.80;;;20.90;99.90;;;;;;5104440;28;20020;-81
2021/07/18 05:10:33;;;;;;;20.63;16.83;;;20.80;99.90;;;;;;5102715;28;20020;-82
2021/07/18 05:12:59;;;;;;;21.33;16.67;;;20.90;99.90;;;;;;5102979;28;20024;-81
2021/07/18 05:15:26;;;;;;;21.83;16.05;;;21.00;99.90;;;;;;5104090;28;20040;-82
2021/07/18 05:17:54;;;;;;;21.45;15.35;;;21.00;99.90;;;;;;5102368;28;20376;-82
2021/07/18 05:20:21;;;;;;;22.10;15.70;;;20.80;99.90;;;;;;5103815;28;20411;-82
2021/07/18 05:22:47;;;;;;;23.98;15.13;;;20.80;99.90;;;;;;5103220;28;20024;-81
2021/07/18 05:25:13;;;;;;;22.55;16.77;;;20.90;99.90;;;;;;5103580;28;20031;-82
2021/07/18 05:27:39;;;;;;;21.10;16.65;;;20.80;99.90;;;;;;5104384;28;20024;-82
2021/07/18 05:30:07;;;;;;;20.85;16.17;;;20.90;99.90;;;;;;5102966;28;20024;-82
2021/07/18 05:32:32;;;;;;;23.08;18.20;;;20.90;99.90;;;;;;5103189;28;20027;-83
2021/07/18 05:34:58;;;;;;;24.55;16.27;;;20.90;99.90;;;;;;5102799;28;20384;-82
2021/07/18 05:37:24;;;;;;;23.20;16.17;;;21.00;99.90;;;;;;5102976;28;20028;-82
2021/07/18 05:39:50;;;;;;;24.33;17.77;;;20.90;99.90;;;;;;5103650;28;20456;-82
2021/07/18 05:42:15;;;;;;;23.98;18.30;;;20.80;99.90;;;;;;5103667;28;20474;-83
2021/07/18 05:44:42;;;;;;;22.65;17.65;;;20.80;99.90;;;;;;5102005;28;20063;-81
2021/07/18 05:47:09;;;;;;;23.35;17.95;;;20.80;99.90;;;;;;5103972;28;20054;-82
2021/07/18 05:49:34;;;;;;;25.23;18.85;;;20.80;99.90;;;;;;5103365;28;20089;-81
2021/07/18 05:52:00;;;;;;;25.08;17.80;;;20.70;99.90;;;;;;5101468;28;20047;-83
2021/07/18 05:54:25;;;;;;;26.30;20.08;;;20.80;99.90;;;;;;5103202;28;20117;-82
2021/07/18 05:56:51;;;;;;;24.20;18.77;;;20.80;99.90;;;;;;5101829;28;20031;-82
2021/07/18 05:59:17;;;;;;;24.77;18.00;;;20.80;99.90;;;;;;5102331;28;20592;-82
2021/07/18 06:01:42;;;;;;;23.38;18.38;;;20.80;99.90;;;;;;5103240;28;20019;-84
2021/07/18 06:04:08;;;;;;;23.40;17.85;;;21.00;99.90;;;;;;5101127;28;20050;-83
2021/07/18 06:06:33;;;;;;;21.92;16.00;;;21.20;99.90;;;;;;5102634;28;20019;-82
2021/07/18 06:08:59;;;;;;;23.45;16.88;;;21.30;99.90;;;;;;5106818;28;20019;-82
2021/07/18 06:11:26;;;;;;;17.55;14.40;;;21.50;99.90;;;;;;5113691;28;20027;-82
2021/07/18 06:13:52;;;;;;;18.17;14.48;;;21.50;99.90;;;;;;5113370;28;20016;-82
2021/07/18 06:16:17;;;;;;;17.02;12.73;;;21.60;99.90;;;;;;5111972;28;20081;-82
2021/07/18 06:18:43;;;;;;;15.88;13.38;;;21.70;99.90;;;;;;5113575;28;20019;-81
2021/07/18 06:21:09;;;;;;;20.77;13.43;;;21.60;99.90;;;;;;5110262;28;20020;-81
2021/07/18 06:23:34;;;;;;;17.77;14.40;;;21.60;99.90;;;;;;5113703;28;20028;-81
2021/07/18 06:26:04;;;;;;;15.43;12.57;;;21.80;99.90;;;;;;5113500;28;20047;-82
2021/07/18 06:28:30;;;;;;;14.52;11.43;;;21.90;99.90;;;;;;5113268;28;20058;-82
2021/07/18 06:30:56;;;;;;;14.38;11.45;;;21.80;99.90;;;;;;5113729;28;20020;-82
2021/07/18 06:33:22;;;;;;;14.70;11.25;;;21.80;99.90;;;;;;5113277;28;20050;-81
2021/07/18 06:35:48;;;;;;;13.27;10.65;;;22.00;99.90;;;;;;5114411;28;20047;-82
2021/07/18 06:38:13;;;;;;;14.23;11.30;;;21.90;99.90;;;;;;5098069;28;20355;-82
2021/07/18 06:40:39;;;;;;;12.25;10.50;;;21.90;99.90;;;;;;5092861;28;20016;-82
2021/07/18 06:43:04;;;;;;;13.07;11.05;;;22.00;99.90;;;;;;5098314;28;20362;-82
2021/07/18 06:45:30;;;;;;;16.95;11.32;;;22.10;99.90;;;;;;5095648;28;20027;-82
2021/07/18 06:47:56;;;;;;;12.00;9.68;;;22.20;99.90;;;;;;5107134;28;20044;-81
2021/07/18 06:50:21;;;;;;;15.07;10.85;;;22.30;99.90;;;;;;5102673;28;20024;-83
2021/07/18 06:52:47;;;;;;;14.70;11.52;;;22.30;99.90;;;;;;5093804;28;20039;-81
2021/07/18 06:55:13;;;;;;;14.30;10.60;;;22.50;99.90;;;;;;5097021;28;20042;-83
2021/07/18 06:57:39;;;;;;;13.30;10.32;;;22.60;99.90;;;;;;5113034;28;20011;-81
2021/07/18 07:00:06;;;;;;;15.38;10.82;;;22.80;99.90;;;;;;5114090;28;20031;-82
2021/07/18 07:02:32;;;;;;;13.18;10.60;;;22.90;99.90;;;;;;5112746;28;20050;-82
2021/07/18 07:04:58;;;;;;;14.85;11.05;;;22.80;99.90;;;;;;5112690;28;20132;-82
2021/07/18 07:07:23;;;;;;;12.30;9.98;;;22.90;99.90;;;;;;5112915;28;20041;-84
2021/07/18 07:09:49;;;;;;;11.60;10.35;;;23.20;99.90;;;;;;5112785;28;20028;-82
2021/07/18 07:12:15;;;;;;;15.65;11.68;;;23.10;99.90;;;;;;5105938;28;20026;-81
2021/07/18 07:14:40;;;;;;;11.30;8.93;;;23.30;99.90;;;;;;5098839;28;20024;-81
2021/07/18 07:17:06;;;;;;;13.13;11.07;;;23.40;99.90;;;;;;5111276;28;20036;-81
2021/07/18 07:19:32;;;;;;;12.95;11.15;;;23.40;99.90;;;;;;5112391;28;20031;-81
2021/07/18 07:21:57;;;;;;;13.18;10.20;;;23.60;99.90;;;;;;5112820;28;20023;-81
2021/07/18 07:24:23;;;;;;;14.45;11.05;;;23.70;99.90;;;;;;5111644;28;20030;-81
2021/07/18 07:26:49;;;;;;;13.98;10.10;;;23.60;99.90;;;;;;5112459;28;20108;-81
2021/07/18 07:29:14;;;;;;;14.88;9.80;;;23.50;99.90;;;;;;5110539;28;20528;-81
2021/07/18 07:31:40;;;;;;;12.85;10.38;;;23.50;99.90;;;;;;5112707;28;20026;-81
2021/07/18 07:34:06;;;;;;;13.15;10.05;;;23.50;99.90;;;;;;5111349;28;20031;-81
2021/07/18 07:36:31;;;;;;;14.27;11.43;;;23.30;99.90;;;;;;5111733;28;20027;-81
2021/07/18 07:38:58;;;;;;;14.50;11.07;;;23.40;99.90;;;;;;5110363;28;20066;-81
2021/07/18 07:41:24;;;;;;;13.13;10.20;;;23.50;99.90;;;;;;5111603;28;20104;-83
2021/07/18 07:43:53;;;;;;;13.05;10.10;;;23.10;99.90;;;;;;5108136;28;20024;-82
2021/07/18 07:46:19;;;;;;;15.18;10.40;;;23.00;99.90;;;;;;5111174;28;20020;-81
2021/07/18 07:48:44;;;;;;;14.48;11.10;;;22.90;99.90;;;;;;5109842;28;20495;-81
2021/07/18 07:51:10;;;;;;;16.60;11.95;;;22.90;99.90;;;;;;5109400;28;20096;-81
2021/07/18 07:53:36;;;;;;;14.88;11.80;;;22.80;99.90;;;;;;5110328;28;20027;-81
2021/07/18 07:56:01;;;;;;;15.23;13.20;;;22.80;99.90;;;;;;5110357;28;20135;-81
2021/07/18 07:58:27;;;;;;;17.30;13.57;;;23.00;99.90;;;;;;5100430;28;20027;-80
2021/07/18 08:00:53;;;;;;;17.52;13.98;;;23.20;99.90;;;;;;5105796;28;20472;-82
2021/07/18 08:03:20;;;;;;;18.15;15.15;;;23.50;99.90;;;;;;5102678;28;20069;-83
2021/07/18 08:05:45;;;;;;;20.58;16.23;;;23.60;99.90;;;;;;5102077;28;20427;-82
2021/07/18 08:08:11;;;;;;;21.67;16.02;;;23.40;99.90;;;;;;5099558;28;20081;-81
2021/07/18 08:10:38;;;;;;;22.08;17.58;;;23.30;99.90;;;;;;5105259;28;20034;-82
2021/07/18 08:13:05;;;;;;;24.25;17.52;;;23.20;99.90;;;;;;5113677;28;20031;-82
2021/07/18 08:15:30;;;;;;;21.23;16.35;;;23.40;99.90;;;;;;5104779;28;20034;-82
2021/07/18 08:17:56;;;;;;;24.20;17.35;;;23.20;99.90;;;;;;5100050;28;20111;-82
2021/07/18 08:20:24;;;;;;;22.58;15.50;;;23.20;99.90;;;;;;5101737;28;20044;-83
2021/07/18 08:22:51;;;;;;;23.73;17.10;;;23.20;99.90;;;;;;5098194;28;20120;-84
2021/07/18 08:25:19;;;;;;;23.48;16.00;;;23.30;99.90;;;;;;5098981;28;20089;-84
2021/07/18 08:27:45;;;;;;;23.10;16.58;;;23.40;99.90;;;;;;5110548;28;20016;-84
2021/07/18 08:30:12;;;;;;;33.15;19.85;;;23.40;99.90;;;;;;5107746;28;20046;-84
2021/07/18 08:32:38;;;;;;;26.63;20.90;;;23.50;99.90;;;;;;5115796;28;20034;-84
2021/07/18 08:35:05;;;;;;;30.00;20.58;;;23.20;99.90;;;;;;5105653;28;20028;-83
2021/07/18 08:37:30;;;;;;;25.13;19.65;;;23.20;99.90;;;;;;5101414;28;20022;-83
2021/07/18 08:39:56;;;;;;;24.30;19.27;;;23.20;99.90;;;;;;5100050;28;20031;-83
2021/07/18 08:42:23;;;;;;;26.65;22.25;;;23.10;99.90;;;;;;5105564;28;20528;-83
2021/07/18 08:44:49;;;;;;;22.95;18.00;;;23.30;99.90;;;;;;5113231;28;20024;-84
2021/07/18 08:47:17;;;;;;;22.48;18.45;;;23.10;99.90;;;;;;5112013;27;20130;-83
2021/07/18 08:49:44;;;;;;;21.83;18.10;;;23.30;99.90;;;;;;5096701;28;20020;-83
2021/07/18 08:52:10;;;;;;;22.98;16.17;;;23.30;99.90;;;;;;5096318;28;20108;-84
2021/07/18 08:54:37;;;;;;;22.85;17.05;;;23.30;99.90;;;;;;5103092;28;20016;-83
2021/07/18 08:57:03;;;;;;;23.63;17.13;;;23.30;99.90;;;;;;5101840;28;20120;-83
2021/07/18 08:59:31;;;;;;;22.90;18.80;;;23.40;99.90;;;;;;5099154;28;20032;-83
2021/07/18 09:01:57;;;;;;;25.00;18.98;;;23.60;99.90;;;;;;5095997;28;20266;-83
2021/07/18 09:04:23;;;;;;;21.17;17.05;;;23.60;99.90;;;;;;5102498;28;20521;-83
2021/07/18 09:06:51;;;;;;;24.35;17.77;;;23.70;99.90;;;;;;5115296;28;20103;-83
2021/07/18 09:09:19;;;;;;;20.85;15.30;;;24.10;99.90;;;;;;5114715;28;20035;-83
2021/07/18 09:11:58;;;;;;;24.35;16.45;;;24.20;99.90;;;;;;5114267;28;20041;-83
2021/07/18 09:14:23;;;;;;;20.27;16.27;;;24.40;99.90;;;;;;5104574;28;20020;-83
2021/07/18 09:16:51;;;;;;;19.83;15.35;;;24.80;99.50;;;;;;5106259;28;20507;-83
2021/07/18 09:19:29;;;;;;;19.77;14.52;;;24.90;95.40;;;;;;5105088;28;20048;-83
2021/07/18 09:22:04;;;;;;;23.63;15.50;;;24.80;94.30;;;;;;5103689;28;20016;-84
2021/07/18 09:24:36;;;;;;;20.80;14.63;;;24.60;92.30;;;;;;5102647;28;20020;-84
2021/07/18 09:27:21;;;;;;;20.70;14.80;;;24.70;94.00;;;;;;5103476;28;20122;-84
2021/07/18 09:29:57;;;;;;;18.48;14.07;;;24.90;93.30;;;;;;5102314;28;20030;-84
2021/07/18 09:32:28;;;;;;;18.48;13.18;;;24.70;90.60;;;;;;5104723;28;20405;-84
2021/07/18 09:34:59;;;;;;;18.50;15.23;;;24.70;92.70;;;;;;5104257;28;20052;-84
2021/07/18 09:37:28;;;;;;;20.75;14.25;;;25.10;89.60;;;;;;5102136;28;20354;-84
2021/07/18 09:40:16;;;;;;;21.85;16.40;;;25.30;89.10;;;;;;5104046;28;20020;-84
2021/07/18 09:42:56;;;;;;;22.92;17.58;;;25.40;89.60;;;;;;5100186;28;20116;-83
2021/07/18 09:45:25;;;;;;;33.58;23.38;;;25.50;90.80;;;;;;5106167;28;20027;-84
2021/07/18 09:48:00;;;;;;;34.20;24.75;;;25.60;90.50;;;;;;5107132;28;20019;-83
2021/07/18 09:50:38;;;;;;;40.17;27.27;;;25.20;90.70;;;;;;5110721;28;20024;-84
2021/07/18 09:53:24;;;;;;;40.60;27.38;;;25.30;90.50;;;;;;5109096;28;20115;-85
2021/07/18 09:56:08;;;;;;;34.15;26.83;;;25.20;92.40;;;;;;5098976;28;20358;-84
2021/07/18 09:58:56;;;;;;;30.75;24.17;;;25.00;94.30;;;;;;5103737;28;20078;-82
2021/07/18 10:01:23;;;;;;;33.15;26.20;;;25.10;91.20;;;;;;5100977;28;20031;-83
2021/07/18 10:03:51;;;;;;;34.75;26.42;;;25.30;91.80;;;;;;5104531;28;20042;-83
2021/07/18 10:06:24;;;;;;;35.08;28.52;;;25.70;89.10;;;;;;5103559;28;20484;-82
2021/07/18 10:08:50;;;;;;;;;;;26.10;85.20;;;;;;5102470;28;20425;-80
2021/07/18 10:11:18;;;;;;;37.50;29.92;;;26.20;83.90;;;;;;5102179;28;19911;-80
2021/07/18 10:13:46;;;;;;;38.33;27.92;;;26.10;86.40;;;;;;5108560;28;20773;-79
2021/07/18 10:16:13;;;;;;;40.38;29.08;;;25.50;83.80;;;;;;5112998;28;20059;-80
2021/07/18 10:18:42;;;;;;;40.22;31.30;;;25.50;85.30;;;;;;5114654;28;20072;-80
2021/07/18 10:21:09;;;;;;;37.42;28.58;;;25.60;86.20;;;;;;5105749;28;20035;-80
2021/07/18 10:23:38;;;;;;;36.85;28.38;;;25.80;81.40;;;;;;5103231;28;20024;-80
2021/07/18 10:26:04;;;;;;;38.05;31.42;;;26.10;83.50;;;;;;5105645;28;20012;-80
2021/07/18 10:28:30;;;;;;;39.13;30.73;;;26.00;82.00;;;;;;5092570;28;20024;-81
2021/07/18 10:31:10;;;;;;;34.33;28.35;;;26.20;84.00;;;;;;5103523;28;20477;-80
2021/07/18 10:33:37;;;;;;;31.73;25.38;;;26.10;84.70;;;;;;5102098;28;20027;-81
2021/07/18 10:36:03;;;;;;;30.48;25.55;;;25.70;84.00;;;;;;5112413;28;20035;-80
2021/07/18 10:38:34;;;;;;;28.88;23.42;;;25.60;82.20;;;;;;5112332;28;20055;-80
2021/07/18 10:41:00;;;;;;;26.17;20.88;;;25.50;80.40;;;;;;5110900;28;20020;-80
2021/07/18 10:43:37;;;;;;;33.33;24.77;;;25.80;77.80;;;;;;5111803;28;20024;-81
2021/07/18 10:46:06;;;;;;;32.95;23.15;;;25.90;78.70;;;;;;5104378;28;20132;-80
2021/07/18 10:48:43;;;;;;;27.15;21.58;;;25.80;78.40;;;;;;5104344;28;20454;-81
2021/07/18 10:51:10;;;;;;;25.90;21.38;;;25.80;78.60;;;;;;5112481;28;20063;-81
2021/07/18 10:53:38;;;;;;;27.23;20.48;;;26.20;77.70;;;;;;5112916;28;20045;-81
2021/07/18 10:56:04;;;;;;;25.75;21.60;;;26.40;77.40;;;;;;5098401;28;20165;-81
2021/07/18 10:58:39;;;;;;;25.10;20.75;;;26.40;77.20;;;;;;5103270;28;20023;-81
2021/07/18 11:01:11;;;;;;;29.42;24.13;;;26.20;78.40;;;;;;5110405;28;20023;-81
2021/07/18 11:03:39;;;;;;;23.15;19.88;;;26.20;77.90;;;;;;5101041;28;20024;-80
2021/07/18 11:06:26;;;;;;;21.48;18.38;;;26.30;75.90;;;;;;5091831;28;20027;-81
2021/07/18 11:09:19;;;;;;;20.20;15.15;;;26.20;82.60;;;;;;5106343;28;20500;-80
2021/07/18 11:11:55;;;;;;;17.85;14.82;;;25.90;86.00;;;;;;5110783;28;20064;-80
2021/07/18 11:14:37;;;;;;;15.65;13.95;;;25.80;87.00;;;;;;5101528;28;20027;-81
2021/07/18 11:17:08;;;;;;;15.43;11.55;;;25.80;83.50;;;;;;5110751;28;20477;-81
2021/07/18 11:19:37;;;;;;;19.75;14.05;;;25.80;82.50;;;;;;5108160;28;20050;-80
2021/07/18 11:22:14;;;;;;;21.02;13.52;;;25.70;83.40;;;;;;5108277;28;20551;-84
2021/07/18 11:25:34;;;;;;;16.92;13.57;;;25.90;83.60;;;;;;5107387;28;20024;-83
2021/07/18 11:28:00;;;;;;;16.58;12.80;;;26.20;79.00;;;;;;5109094;28;20039;-82
2021/07/18 11:30:37;;;;;;;15.40;11.05;;;26.40;80.90;;;;;;5102154;28;20028;-82
2021/07/18 11:33:25;;;;;;;15.57;10.48;;;26.20;80.40;;;;;;5098989;28;20444;-82
2021/07/18 11:35:53;;;;;;;11.38;8.52;;;26.10;77.10;;;;;;5102336;28;20388;-83
2021/07/18 11:38:20;;;;;;;12.73;8.95;;;26.30;76.20;;;;;;5101198;28;20043;-83
2021/07/18 11:40:45;;;;;;;13.85;10.05;;;26.50;77.00;;;;;;5102539;28;20027;-83
2021/07/18 11:43:11;;;;;;;10.80;9.70;;;26.80;77.30;;;;;;5099424;28;20370;-83
2021/07/18 11:45:37;;;;;;;12.85;10.32;;;26.80;73.90;;;;;;5097542;28;20017;-83
2021/07/18 11:48:04;;;;;;;17.75;10.65;;;26.70;74.90;;;;;;5113236;28;20367;-83
2021/07/18 11:50:29;;;;;;;11.82;10.00;;;26.40;75.10;;;;;;5105264;28;20391;-83
2021/07/18 11:52:55;;;;;;;12.77;9.18;;;26.30;77.40;;;;;;5101715;28;20030;-83
2021/07/18 11:55:21;;;;;;;12.43;7.93;;;26.20;77.20;;;;;;5101937;28;20072;-82
2021/07/18 11:57:46;;;;;;;14.65;9.90;;;26.00;73.40;;;;;;5100716;28;20024;-81
2021/07/18 12:00:13;;;;;;;9.50;8.40;;;25.90;75.70;;;;;;5104138;28;20031;-83
2021/07/18 12:02:40;;;;;;;11.32;8.57;;;25.80;74.80;;;;;;5109712;28;20042;-83
2021/07/18 12:05:07;;;;;;;13.73;9.90;;;26.20;74.90;;;;;;5111269;28;20026;-83
2021/07/18 12:07:33;;;;;;;9.30;7.80;;;26.40;74.00;;;;;;5112132;28;20050;-83
2021/07/18 12:09:58;;;;;;;11.20;8.02;;;26.60;72.30;;;;;;5111496;28;20465;-83
2021/07/18 12:12:24;;;;;;;9.32;8.32;;;26.80;72.20;;;;;;5108498;28;20441;-86
2021/07/18 12:14:54;;;;;;;9.80;8.18;;;26.90;72.40;;;;;;5100776;28;20019;-87
2021/07/18 12:17:20;;;;;;;9.05;8.15;;;26.90;69.20;;;;;;5099840;28;20016;-86
2021/07/18 12:19:46;;;;;;;9.65;7.68;;;26.80;68.40;;;;;;5099386;28;20547;-85
2021/07/18 12:22:12;;;;;;;11.88;8.65;;;27.20;70.10;;;;;;5099962;28;20028;-87
2021/07/18 12:24:42;;;;;;;9.68;7.95;;;27.40;72.00;;;;;;5109785;28;20031;-85
2021/07/18 12:27:17;;;;;;;9.48;8.48;;;26.90;71.40;;;;;;5106988;28;20039;-85
2021/07/18 12:29:42;;;;;;;10.48;8.27;;;26.30;73.80;;;;;;5098175;28;20027;-86